Terminal Aerodrome Forecast
Issued by NWS Shreveport, LA

Home | Current Version | Previous Version | Text Only | Print | Product List | Glossary On
Versions: 1 2 3 4 5 6 7 8 9 10 11 12 13 14 15 16 17
031
FTUS44 KSHV 192329
TAFTYR
TAF
KTYR 192329Z 2000/2024 19010KT P6SM SCT015 SCT250
      TEMPO 2000/2004 BKN015
     FM200400 19010KT P6SM BKN015
      TEMPO 2008/2012 3SM BR BKN005
     FM201200 20012KT 5SM BR OVC005
      TEMPO 2012/2014 P6SM NSW SCT010
     FM201400 21012G18KT P6SM SCT025 SCT250
     FM201800 22012G22KT P6SM BKN250=

USA.gov is the U.S. government's official web portal to all federal, state and local government web resources and services.